createdAt,value
2014-07-25T00:00:17.066Z,100906
2014-07-25T00:00:35.255Z,100897
2014-07-25T00:00:53.443Z,100903
2014-07-25T00:01:11.630Z,100900
2014-07-25T00:01:29.820Z,100903
2014-07-25T00:01:48.007Z,100903
2014-07-25T00:02:06.195Z,100900
2014-07-25T00:02:24.384Z,100903
2014-07-25T00:02:42.572Z,100886
2014-07-25T00:03:00.775Z,100897
2014-07-25T00:03:18.964Z,100900
2014-07-25T00:03:37.152Z,100894
2014-07-25T00:03:55.339Z,100900
2014-07-25T00:04:13.527Z,100903
2014-07-25T00:04:31.716Z,100906
2014-07-25T00:04:49.919Z,100894
2014-07-25T00:05:08.107Z,100903
2014-07-25T00:05:26.296Z,100894
2014-07-25T00:05:44.484Z,100894
2014-07-25T00:06:02.687Z,100891
2014-07-25T00:06:20.874Z,100894
2014-07-25T00:06:39.064Z,100894
2014-07-25T00:06:57.251Z,100897
2014-07-25T00:07:15.439Z,100886
2014-07-25T00:07:33.627Z,100894
2014-07-25T00:07:51.831Z,100891
2014-07-25T00:08:10.018Z,100889
2014-07-25T00:08:28.209Z,100894
2014-07-25T00:08:46.396Z,100894
2014-07-25T00:09:04.584Z,100891
2014-07-25T00:09:22.787Z,100889
2014-07-25T00:09:40.976Z,100886
2014-07-25T00:09:59.164Z,100880
2014-07-25T00:10:17.351Z,100891
2014-07-25T00:10:35.541Z,100886
2014-07-25T00:10:53.728Z,100883
2014-07-25T00:11:11.916Z,100894
2014-07-25T00:11:30.105Z,100886
2014-07-25T00:11:48.308Z,100889
2014-07-25T00:12:06.496Z,100880
2014-07-25T00:12:24.683Z,100891
2014-07-25T00:12:42.872Z,100889
2014-07-25T00:13:01.075Z,100886
2014-07-25T00:13:19.262Z,100889
2014-07-25T00:13:37.452Z,100891
2014-07-25T00:13:55.639Z,100883
2014-07-25T00:14:13.827Z,100889
2014-07-25T00:14:32.016Z,100891
2014-07-25T00:14:50.204Z,100886
2014-07-25T00:15:08.391Z,100886
2014-07-25T00:15:26.579Z,100886
2014-07-25T00:15:44.768Z,100891
2014-07-25T00:16:02.972Z,100886
2014-07-25T00:16:21.159Z,100889
2014-07-25T00:16:39.349Z,100891
2014-07-25T00:16:57.536Z,100891
2014-07-25T00:17:15.724Z,100889
2014-07-25T00:17:33.930Z,100889
2014-07-25T00:17:52.102Z,100889
2014-07-25T00:18:10.305Z,100894
2014-07-25T00:18:28.492Z,100897
2014-07-25T00:18:46.682Z,100891
2014-07-25T00:19:04.869Z,100886
2014-07-25T00:19:23.057Z,100889
2014-07-25T00:19:41.245Z,100900
2014-07-25T00:19:59.448Z,100891
2014-07-25T00:20:17.636Z,100891
2014-07-25T00:20:35.825Z,100891
2014-07-25T00:20:54.013Z,100894
2014-07-25T00:21:12.200Z,100891
2014-07-25T00:21:30.388Z,100891
2014-07-25T00:21:48.577Z,100897
2014-07-25T00:22:06.765Z,100880
2014-07-25T00:22:24.968Z,100897
2014-07-25T00:22:43.157Z,100891
2014-07-25T00:23:01.345Z,100894
2014-07-25T00:23:19.532Z,100886
2014-07-25T00:23:37.722Z,100883
2014-07-25T00:23:55.909Z,100883
2014-07-25T00:24:14.097Z,100897
2014-07-25T00:24:32.300Z,100891
2014-07-25T00:24:50.490Z,100894
2014-07-25T00:25:08.677Z,100889
2014-07-25T00:25:26.865Z,100891
2014-07-25T00:25:45.054Z,100891
2014-07-25T00:26:03.242Z,100889
2014-07-25T00:26:21.429Z,100889
2014-07-25T00:26:39.619Z,100889
2014-07-25T00:26:57.806Z,100894
2014-07-25T00:27:15.994Z,100889
2014-07-25T00:27:34.197Z,100889
2014-07-25T00:27:52.385Z,100889
2014-07-25T00:28:10.573Z,100894
2014-07-25T00:28:28.760Z,100883
2014-07-25T00:28:46.951Z,100883
2014-07-25T00:29:05.138Z,100886
2014-07-25T00:29:23.326Z,100883
2014-07-25T00:29:41.515Z,100883
2014-07-25T00:29:59.703Z,100889
2014-07-25T00:30:17.890Z,100883
2014-07-25T00:30:36.078Z,100883
2014-07-25T00:30:54.283Z,100889
2014-07-25T00:31:12.470Z,100874
2014-07-25T00:31:30.658Z,100886
2014-07-25T00:31:48.847Z,100889
2014-07-25T00:32:07.035Z,100883
2014-07-25T00:32:25.238Z,100886
2014-07-25T00:32:43.427Z,100883
2014-07-25T00:33:01.615Z,100880
2014-07-25T00:33:19.802Z,100874
2014-07-25T00:33:37.990Z,100874
2014-07-25T00:33:56.178Z,100871
2014-07-25T00:34:14.366Z,100874
2014-07-25T00:34:32.553Z,100868
2014-07-25T00:34:50.760Z,100886
2014-07-25T00:35:08.947Z,100868
2014-07-25T00:35:27.135Z,100877
2014-07-25T00:35:45.324Z,100871
2014-07-25T00:36:03.512Z,100871
2014-07-25T00:36:21.699Z,100877
2014-07-25T00:36:39.887Z,100863
2014-07-25T00:36:58.075Z,100863
2014-07-25T00:37:16.263Z,100871
2014-07-25T00:37:34.466Z,100860
2014-07-25T00:37:52.655Z,100868
2014-07-25T00:38:10.843Z,100857
2014-07-25T00:38:29.030Z,100868
2014-07-25T00:38:47.220Z,100863
2014-07-25T00:39:05.407Z,100863
2014-07-25T00:39:23.595Z,100868
2014-07-25T00:39:41.782Z,100877
2014-07-25T00:39:59.972Z,100868
2014-07-25T00:40:18.175Z,100874
2014-07-25T00:40:36.362Z,100863
2014-07-25T00:40:54.552Z,100863
2014-07-25T00:41:12.739Z,100863
2014-07-25T00:41:30.927Z,100857
2014-07-25T00:41:49.116Z,100863
2014-07-25T00:42:07.304Z,100863
2014-07-25T00:42:25.507Z,100866
2014-07-25T00:42:43.694Z,100863
2014-07-25T00:43:01.884Z,100868
2014-07-25T00:43:20.071Z,100860
2014-07-25T00:43:38.259Z,100866
2014-07-25T00:43:56.447Z,100860
2014-07-25T00:44:14.635Z,100868
2014-07-25T00:44:32.838Z,100863
2014-07-25T00:44:51.029Z,100860
2014-07-25T00:45:09.216Z,100863
2014-07-25T00:45:27.404Z,100854
2014-07-25T00:45:45.591Z,100863
2014-07-25T00:46:03.781Z,100866
2014-07-25T00:46:21.984Z,100866
2014-07-25T00:46:40.171Z,100854
2014-07-25T00:46:58.361Z,100863
2014-07-25T00:47:16.548Z,100851
2014-07-25T00:47:34.736Z,100868
2014-07-25T00:47:52.924Z,100866
2014-07-25T00:48:11.112Z,100854
2014-07-25T00:48:29.299Z,100860
2014-07-25T00:48:47.502Z,100866
2014-07-25T00:49:05.693Z,100854
2014-07-25T00:49:23.880Z,100860
2014-07-25T00:49:42.068Z,100846
2014-07-25T00:50:00.256Z,100854
2014-07-25T00:50:18.444Z,100860
2014-07-25T00:50:36.631Z,100863
2014-07-25T00:50:54.834Z,100838
2014-07-25T00:51:13.025Z,100854
2014-07-25T00:51:31.212Z,100863
2014-07-25T00:51:49.400Z,100848
2014-07-25T00:52:07.589Z,100857
2014-07-25T00:52:25.793Z,100860
2014-07-25T00:52:43.980Z,100848
2014-07-25T00:53:02.170Z,100860
2014-07-25T00:53:20.357Z,100848
2014-07-25T00:53:38.545Z,100845
2014-07-25T00:53:56.732Z,100854
2014-07-25T00:54:14.922Z,100854
2014-07-25T00:54:33.125Z,100857
2014-07-25T00:54:51.312Z,100851
2014-07-25T00:55:09.501Z,100848
2014-07-25T00:55:27.688Z,100851
2014-07-25T00:55:45.876Z,100848
2014-07-25T00:56:04.066Z,100848
2014-07-25T00:56:22.254Z,100848
2014-07-25T00:56:40.441Z,100851
2014-07-25T00:56:58.629Z,100845
2014-07-25T00:57:16.834Z,100845
2014-07-25T00:57:35.021Z,100835
2014-07-25T00:57:53.209Z,100838
2014-07-25T00:58:11.397Z,100848
2014-07-25T00:58:29.585Z,100835
2014-07-25T00:58:47.772Z,100838
2014-07-25T00:59:05.977Z,100845
2014-07-25T00:59:24.165Z,100848
2014-07-25T00:59:42.352Z,100844
2014-07-25T01:00:00.540Z,100851
2014-07-25T01:00:18.729Z,100844
2014-07-25T01:00:36.917Z,100844
2014-07-25T01:00:55.104Z,100844
2014-07-25T01:01:13.294Z,100844
2014-07-25T01:01:31.497Z,100844
2014-07-25T01:01:49.685Z,100854
2014-07-25T01:02:07.874Z,100844
2014-07-25T01:02:26.062Z,100845
2014-07-25T01:02:44.249Z,100851
2014-07-25T01:03:02.437Z,100844
2014-07-25T01:03:20.625Z,100845
2014-07-25T01:03:38.813Z,100857
2014-07-25T01:03:57.016Z,100848
2014-07-25T01:04:15.205Z,100851
2014-07-25T01:04:33.393Z,100845
2014-07-25T01:04:51.580Z,100844
2014-07-25T01:05:09.771Z,100845
2014-07-25T01:05:27.958Z,100845
2014-07-25T01:05:46.146Z,100844
2014-07-25T01:06:04.333Z,100851
2014-07-25T01:06:22.538Z,100845
2014-07-25T01:06:40.726Z,100838
2014-07-25T01:06:58.913Z,100844
2014-07-25T01:07:17.102Z,100844
2014-07-25T01:07:35.289Z,100848
2014-07-25T01:07:53.477Z,100844
2014-07-25T01:08:11.666Z,100851
2014-07-25T01:08:29.854Z,100845
2014-07-25T01:08:48.041Z,100845
2014-07-25T01:09:06.229Z,100851
2014-07-25T01:09:24.418Z,100835
2014-07-25T01:09:42.606Z,100829
2014-07-25T01:10:00.793Z,100832
2014-07-25T01:10:18.983Z,100838
2014-07-25T01:10:37.170Z,100835
2014-07-25T01:10:55.358Z,100844
2014-07-25T01:11:13.547Z,100844
2014-07-25T01:11:31.735Z,100826
2014-07-25T01:11:49.922Z,100838
2014-07-25T01:12:08.110Z,100844
2014-07-25T01:12:26.299Z,100826
2014-07-25T01:12:44.487Z,100835
2014-07-25T01:13:02.674Z,100832
2014-07-25T01:13:20.879Z,100821
2014-07-25T01:13:39.067Z,100823
2014-07-25T01:13:57.254Z,100826
2014-07-25T01:14:15.444Z,100835
2014-07-25T01:14:33.631Z,100823
2014-07-25T01:14:51.819Z,100835
2014-07-25T01:15:10.006Z,100826
2014-07-25T01:15:28.197Z,100832
2014-07-25T01:15:46.384Z,100829
2014-07-25T01:16:04.572Z,100826
2014-07-25T01:16:22.760Z,100832
2014-07-25T01:16:40.964Z,100826
2014-07-25T01:16:59.151Z,100829
2014-07-25T01:17:17.341Z,100829
2014-07-25T01:17:35.528Z,100823
2014-07-25T01:17:53.716Z,100823
2014-07-25T01:18:11.903Z,100832
2014-07-25T01:18:30.093Z,100818
2014-07-25T01:18:48.296Z,100844
2014-07-25T01:19:06.483Z,100832
2014-07-25T01:19:24.673Z,100829
2014-07-25T01:19:42.860Z,100829
2014-07-25T01:20:01.048Z,100826
2014-07-25T01:20:19.237Z,100832
2014-07-25T01:20:37.425Z,100823
2014-07-25T01:20:55.612Z,100818
2014-07-25T01:21:13.800Z,100821
2014-07-25T01:21:31.988Z,100829
2014-07-25T01:21:50.176Z,100818
2014-07-25T01:22:08.363Z,100823
2014-07-25T01:22:26.554Z,100821
2014-07-25T01:22:44.741Z,100815
2014-07-25T01:23:02.929Z,100818
2014-07-25T01:23:21.117Z,100818
2014-07-25T01:23:39.305Z,100826
2014-07-25T01:23:57.492Z,100815
2014-07-25T01:24:15.680Z,100818
2014-07-25T01:24:33.869Z,100809
2014-07-25T01:24:52.057Z,100815
2014-07-25T01:25:10.244Z,100821
2014-07-25T01:25:28.435Z,100812
2014-07-25T01:25:46.622Z,100809
2014-07-25T01:26:04.810Z,100812
2014-07-25T01:26:22.999Z,100812
2014-07-25T01:26:41.187Z,100815
2014-07-25T01:26:59.374Z,100812
2014-07-25T01:27:17.562Z,100806
2014-07-25T01:27:35.751Z,100812
2014-07-25T01:27:53.939Z,100815
2014-07-25T01:28:12.126Z,100818
2014-07-25T01:28:30.316Z,100815
2014-07-25T01:28:48.503Z,100815
2014-07-25T01:29:06.691Z,100818
2014-07-25T01:29:24.880Z,100812
2014-07-25T01:29:43.068Z,100818
2014-07-25T01:30:01.255Z,100823
2014-07-25T01:30:19.443Z,100823
2014-07-25T01:30:37.631Z,100821
2014-07-25T01:30:55.819Z,100823
2014-07-25T01:31:14.006Z,100821
2014-07-25T01:31:32.196Z,100821
2014-07-25T01:31:50.383Z,100818
2014-07-25T01:32:08.571Z,100821
2014-07-25T01:32:26.760Z,100818
2014-07-25T01:32:44.948Z,100812
2014-07-25T01:33:03.135Z,100818
2014-07-25T01:33:21.323Z,100818
2014-07-25T01:33:39.512Z,100818
2014-07-25T01:33:57.700Z,100821
2014-07-25T01:34:15.887Z,100815
2014-07-25T01:34:34.077Z,100818
2014-07-25T01:34:52.264Z,100809
2014-07-25T01:35:10.452Z,100809
2014-07-25T01:35:28.641Z,100815
2014-07-25T01:35:46.829Z,100806
2014-07-25T01:36:05.016Z,100812
2014-07-25T01:36:23.204Z,100821
2014-07-25T01:36:41.393Z,100821
2014-07-25T01:36:59.581Z,100821
2014-07-25T01:37:17.768Z,100818
2014-07-25T01:37:35.957Z,100818
2014-07-25T01:37:54.144Z,100821
2014-07-25T01:38:12.332Z,100829
2014-07-25T01:38:30.522Z,100815
2014-07-25T01:38:48.710Z,100815
2014-07-25T01:39:06.897Z,100826
2014-07-25T01:39:25.085Z,100818
2014-07-25T01:39:43.274Z,100815
2014-07-25T01:40:01.462Z,100812
2014-07-25T01:40:19.649Z,100815
2014-07-25T01:40:37.839Z,100818
2014-07-25T01:40:56.026Z,100821
2014-07-25T01:41:14.214Z,100812
2014-07-25T01:41:32.403Z,100818
2014-07-25T01:41:50.591Z,100818
2014-07-25T01:42:08.778Z,100818
2014-07-25T01:42:26.966Z,100818
2014-07-25T01:42:45.155Z,100823
2014-07-25T01:43:03.343Z,100812
2014-07-25T01:43:21.530Z,100818
2014-07-25T01:43:39.719Z,100818
2014-07-25T01:43:57.906Z,100823
2014-07-25T01:44:16.094Z,100821
2014-07-25T01:44:34.284Z,100823
2014-07-25T01:44:52.472Z,100809
2014-07-25T01:45:10.659Z,100815
2014-07-25T01:45:28.847Z,100821
2014-07-25T01:45:47.035Z,100818
2014-07-25T01:46:05.223Z,100815
2014-07-25T01:46:23.410Z,100818
2014-07-25T01:46:41.600Z,100821
2014-07-25T01:46:59.787Z,100815
2014-07-25T01:47:17.975Z,100815
2014-07-25T01:47:36.164Z,100818
2014-07-25T01:47:54.352Z,100821
2014-07-25T01:48:12.539Z,100823
2014-07-25T01:48:30.727Z,100812
2014-07-25T01:48:48.917Z,100815
2014-07-25T01:49:07.105Z,100815
2014-07-25T01:49:25.277Z,100806
2014-07-25T01:49:43.481Z,100812
2014-07-25T01:50:01.668Z,100815
2014-07-25T01:50:19.856Z,100812
2014-07-25T01:50:38.046Z,100812
2014-07-25T01:50:56.249Z,100818
2014-07-25T01:51:14.437Z,100823
2014-07-25T01:51:32.624Z,100826
2014-07-25T01:51:50.828Z,100818
2014-07-25T01:52:09.016Z,100815
2014-07-25T01:52:27.203Z,100818
2014-07-25T01:52:45.393Z,100818
2014-07-25T01:53:03.596Z,100806
2014-07-25T01:53:21.784Z,100818
2014-07-25T01:53:39.973Z,100812
2014-07-25T01:53:58.176Z,100812
2014-07-25T01:54:16.364Z,100818
2014-07-25T01:54:34.551Z,100809
2014-07-25T01:54:52.741Z,100818
2014-07-25T01:55:10.944Z,100809
2014-07-25T01:55:29.131Z,100806
2014-07-25T01:55:47.321Z,100815
2014-07-25T01:56:05.508Z,100818
2014-07-25T01:56:23.711Z,100809
2014-07-25T01:56:41.899Z,100806
2014-07-25T01:57:00.104Z,100809
2014-07-25T01:57:18.292Z,100812
2014-07-25T01:57:36.479Z,100812
2014-07-25T01:57:54.684Z,100812
2014-07-25T01:58:12.872Z,100798
2014-07-25T01:58:31.059Z,100818
2014-07-25T01:58:49.264Z,100815
2014-07-25T01:59:07.452Z,100812
2014-07-25T01:59:25.639Z,100815
2014-07-25T01:59:43.842Z,100818
2014-07-25T02:00:02.031Z,100812
2014-07-25T02:00:20.218Z,100806
2014-07-25T02:00:38.422Z,100815
2014-07-25T02:00:56.612Z,100815
2014-07-25T02:01:14.800Z,100815
2014-07-25T02:01:32.987Z,100798
2014-07-25T02:01:51.176Z,100806
2014-07-25T02:02:09.363Z,100803
2014-07-25T02:02:27.551Z,100812
2014-07-25T02:02:45.738Z,100803
2014-07-25T02:03:03.929Z,100806
2014-07-25T02:03:22.116Z,100803
2014-07-25T02:03:40.304Z,100815
2014-07-25T02:03:58.493Z,100809
2014-07-25T02:04:16.681Z,100806
2014-07-25T02:04:34.868Z,100812
2014-07-25T02:04:53.058Z,100815
2014-07-25T02:05:11.245Z,100806
2014-07-25T02:05:29.433Z,100815
2014-07-25T02:05:47.620Z,100815
2014-07-25T02:06:05.809Z,100806
2014-07-25T02:06:23.996Z,100812
2014-07-25T02:06:42.184Z,100812
2014-07-25T02:07:00.373Z,100815
2014-07-25T02:07:18.561Z,100812
2014-07-25T02:07:36.748Z,100818
2014-07-25T02:07:54.939Z,100806
2014-07-25T02:08:13.126Z,100812
2014-07-25T02:08:31.314Z,100818
2014-07-25T02:08:49.501Z,100812
2014-07-25T02:09:07.690Z,100809
2014-07-25T02:09:25.877Z,100812
2014-07-25T02:09:44.065Z,100815
2014-07-25T02:10:02.255Z,100809
2014-07-25T02:10:20.443Z,100812
2014-07-25T02:10:38.630Z,100812
2014-07-25T02:10:56.819Z,100823
2014-07-25T02:11:15.006Z,100812
2014-07-25T02:11:33.194Z,100818
2014-07-25T02:11:51.381Z,100815
2014-07-25T02:12:09.571Z,100815
2014-07-25T02:12:27.758Z,100818
2014-07-25T02:12:45.946Z,100815
2014-07-25T02:13:04.135Z,100823
2014-07-25T02:13:22.323Z,100823
2014-07-25T02:13:40.510Z,100820
2014-07-25T02:13:58.700Z,100818
2014-07-25T02:14:16.887Z,100815
2014-07-25T02:14:35.075Z,100823
2014-07-25T02:14:53.262Z,100826
2014-07-25T02:15:11.452Z,100818
2014-07-25T02:15:29.639Z,100820
2014-07-25T02:15:47.827Z,100818
2014-07-25T02:16:06.016Z,100806
2014-07-25T02:16:24.204Z,100809
2014-07-25T02:16:42.391Z,100820
2014-07-25T02:17:00.581Z,100809
2014-07-25T02:17:18.768Z,100820
2014-07-25T02:17:36.956Z,100820
2014-07-25T02:17:55.143Z,100812
2014-07-25T02:18:13.332Z,100818
2014-07-25T02:18:31.519Z,100815
2014-07-25T02:18:49.707Z,100812
2014-07-25T02:19:07.896Z,100803
2014-07-25T02:19:26.084Z,100818
2014-07-25T02:19:44.271Z,100815
2014-07-25T02:20:02.476Z,100812
2014-07-25T02:20:20.664Z,100815
2014-07-25T02:20:38.851Z,100806
2014-07-25T02:20:57.039Z,100820
2014-07-25T02:21:15.229Z,100812
2014-07-25T02:21:33.417Z,100815
2014-07-25T02:21:51.604Z,100815
2014-07-25T02:22:09.793Z,100812
2014-07-25T02:22:27.980Z,100823
2014-07-25T02:22:46.168Z,100809
2014-07-25T02:23:04.357Z,100812
2014-07-25T02:23:22.545Z,100812
2014-07-25T02:23:40.732Z,100812
2014-07-25T02:23:58.920Z,100809
2014-07-25T02:24:17.110Z,100823
2014-07-25T02:24:35.298Z,100820
2014-07-25T02:24:53.485Z,100815
2014-07-25T02:25:11.675Z,100823
2014-07-25T02:25:29.862Z,100820
2014-07-25T02:25:48.050Z,100818
2014-07-25T02:26:06.238Z,100820
2014-07-25T02:26:24.426Z,100803
2014-07-25T02:26:42.613Z,100823
2014-07-25T02:27:00.801Z,100823
2014-07-25T02:27:18.990Z,100815
2014-07-25T02:27:37.178Z,100818
2014-07-25T02:27:55.365Z,100818
2014-07-25T02:28:13.555Z,100823
2014-07-25T02:28:31.742Z,100818
2014-07-25T02:28:49.930Z,100823
2014-07-25T02:29:08.119Z,100818
2014-07-25T02:29:26.307Z,100821
2014-07-25T02:29:44.494Z,100821
2014-07-25T02:30:02.682Z,100812
2014-07-25T02:30:20.871Z,100818
2014-07-25T02:30:39.059Z,100818
2014-07-25T02:30:57.246Z,100826
2014-07-25T02:31:15.435Z,100812
2014-07-25T02:31:33.622Z,100821
2014-07-25T02:31:51.810Z,100818
2014-07-25T02:32:10.000Z,100812
2014-07-25T02:32:28.188Z,100806
2014-07-25T02:32:46.375Z,100826
2014-07-25T02:33:04.563Z,100818
2014-07-25T02:33:22.752Z,100818
2014-07-25T02:33:40.940Z,100820
2014-07-25T02:33:59.127Z,100820
2014-07-25T02:34:17.317Z,100812
2014-07-25T02:34:35.504Z,100815
2014-07-25T02:34:53.692Z,100826
2014-07-25T02:35:11.880Z,100818
2014-07-25T02:35:30.068Z,100818
2014-07-25T02:35:48.255Z,100818
2014-07-25T02:36:06.443Z,100812
2014-07-25T02:36:24.633Z,100818
2014-07-25T02:36:42.821Z,100821
2014-07-25T02:37:01.008Z,100815
2014-07-25T02:37:19.198Z,100812
2014-07-25T02:37:37.385Z,100815
2014-07-25T02:37:55.573Z,100812
2014-07-25T02:38:13.761Z,100812
2014-07-25T02:38:31.949Z,100820
2014-07-25T02:38:50.136Z,100815
2014-07-25T02:39:08.324Z,100812
2014-07-25T02:39:26.513Z,100820
2014-07-25T02:39:44.701Z,100815
2014-07-25T02:40:02.888Z,100818
2014-07-25T02:40:21.079Z,100812
2014-07-25T02:40:39.266Z,100818
2014-07-25T02:40:57.454Z,100820
2014-07-25T02:41:15.642Z,100812
2014-07-25T02:41:33.830Z,100823
2014-07-25T02:41:52.017Z,100823
2014-07-25T02:42:10.205Z,100826
2014-07-25T02:42:28.395Z,100823
2014-07-25T02:42:46.583Z,100818
2014-07-25T02:43:04.770Z,100823
2014-07-25T02:43:22.959Z,100823
2014-07-25T02:43:41.146Z,100826
2014-07-25T02:43:59.334Z,100820
2014-07-25T02:44:17.521Z,100818
2014-07-25T02:44:35.711Z,100826
2014-07-25T02:44:53.898Z,100818
2014-07-25T02:45:12.086Z,100826
2014-07-25T02:45:30.275Z,100823
2014-07-25T02:45:48.463Z,100818
2014-07-25T02:46:06.650Z,100820
2014-07-25T02:46:24.840Z,100832
2014-07-25T02:46:43.027Z,100829
2014-07-25T02:47:01.215Z,100823
2014-07-25T02:47:19.404Z,100826
2014-07-25T02:47:37.607Z,100809
2014-07-25T02:47:55.779Z,100820
2014-07-25T02:48:13.967Z,100820
2014-07-25T02:48:32.156Z,100818
2014-07-25T02:48:50.344Z,100815
2014-07-25T02:49:08.531Z,100812
2014-07-25T02:49:26.720Z,100823
2014-07-25T02:49:44.892Z,100829
2014-07-25T02:50:03.095Z,100829
2014-07-25T02:50:21.284Z,100818
2014-07-25T02:50:39.472Z,100826
2014-07-25T02:50:57.659Z,100823
2014-07-25T02:51:15.847Z,100826
2014-07-25T02:51:34.037Z,100820
2014-07-25T02:51:52.225Z,100826
2014-07-25T02:52:10.428Z,100829
2014-07-25T02:52:28.617Z,100823
2014-07-25T02:52:46.805Z,100832
2014-07-25T02:53:04.992Z,100823
2014-07-25T02:53:23.182Z,100820
2014-07-25T02:53:41.369Z,100823
2014-07-25T02:53:59.557Z,100829
2014-07-25T02:54:17.744Z,100823
2014-07-25T02:54:35.934Z,100829
2014-07-25T02:54:54.121Z,100820
2014-07-25T02:55:12.309Z,100826
2014-07-25T02:55:30.498Z,100829
2014-07-25T02:55:48.686Z,100832
2014-07-25T02:56:06.873Z,100835
2014-07-25T02:56:25.062Z,100823
2014-07-25T02:56:43.249Z,100820
2014-07-25T02:57:01.437Z,100835
2014-07-25T02:57:19.624Z,100829
2014-07-25T02:57:37.814Z,100835
2014-07-25T02:57:56.001Z,100829
2014-07-25T02:58:14.189Z,100835
2014-07-25T02:58:32.378Z,100835
2014-07-25T02:58:50.566Z,100829
2014-07-25T02:59:08.753Z,100832
2014-07-25T02:59:26.943Z,100835
2014-07-25T02:59:45.130Z,100835
2014-07-25T03:00:03.318Z,100823
2014-07-25T03:00:21.505Z,100838
2014-07-25T03:00:39.695Z,100835
2014-07-25T03:00:57.882Z,100829
2014-07-25T03:01:16.070Z,100826
2014-07-25T03:01:34.259Z,100835
2014-07-25T03:01:52.447Z,100826
2014-07-25T03:02:10.634Z,100835
2014-07-25T03:02:28.824Z,100826
2014-07-25T03:02:47.011Z,100829
2014-07-25T03:03:05.199Z,100832
2014-07-25T03:03:23.386Z,100829
2014-07-25T03:03:41.576Z,100835
2014-07-25T03:03:59.763Z,100829
2014-07-25T03:04:17.951Z,100835
2014-07-25T03:04:36.140Z,100823
2014-07-25T03:04:54.328Z,100835
2014-07-25T03:05:12.515Z,100826
2014-07-25T03:05:30.705Z,100832
2014-07-25T03:05:48.892Z,100832
2014-07-25T03:06:07.080Z,100832
2014-07-25T03:06:25.267Z,100826
2014-07-25T03:06:43.457Z,100826
2014-07-25T03:07:01.644Z,100823
2014-07-25T03:07:19.832Z,100832
2014-07-25T03:07:38.037Z,100829
2014-07-25T03:07:56.224Z,100823
2014-07-25T03:08:14.412Z,100820
2014-07-25T03:08:32.601Z,100832
2014-07-25T03:08:50.789Z,100832
2014-07-25T03:09:08.976Z,100829
2014-07-25T03:09:27.164Z,100832
2014-07-25T03:09:45.353Z,100829
2014-07-25T03:10:03.541Z,100844
2014-07-25T03:10:21.728Z,100848
2014-07-25T03:10:39.917Z,100835
2014-07-25T03:10:58.104Z,100832
2014-07-25T03:11:16.292Z,100835
2014-07-25T03:11:34.481Z,100832
2014-07-25T03:11:52.669Z,100838
2014-07-25T03:12:10.856Z,100829
2014-07-25T03:12:29.044Z,100838
2014-07-25T03:12:47.233Z,100845
2014-07-25T03:13:05.421Z,100844
2014-07-25T03:13:23.608Z,100845
2014-07-25T03:13:41.799Z,100851
2014-07-25T03:13:59.971Z,100845
2014-07-25T03:14:18.174Z,100848
2014-07-25T03:14:36.363Z,100854
2014-07-25T03:14:54.551Z,100848
2014-07-25T03:15:12.738Z,100838
2014-07-25T03:15:30.926Z,100829
2014-07-25T03:15:49.114Z,100838
2014-07-25T03:16:07.302Z,100832
2014-07-25T03:16:25.489Z,100843
2014-07-25T03:16:43.679Z,100845
2014-07-25T03:17:01.866Z,100838
2014-07-25T03:17:20.054Z,100843
2014-07-25T03:17:38.243Z,100843
2014-07-25T03:17:56.431Z,100848
2014-07-25T03:18:14.618Z,100843
2014-07-25T03:18:32.806Z,100851
2014-07-25T03:18:50.995Z,100844
2014-07-25T03:19:09.199Z,100851
2014-07-25T03:19:27.386Z,100835
2014-07-25T03:19:45.576Z,100848
2014-07-25T03:20:03.763Z,100851
2014-07-25T03:20:21.951Z,100845
2014-07-25T03:20:40.138Z,100854
2014-07-25T03:20:58.328Z,100838
2014-07-25T03:21:16.515Z,100851
2014-07-25T03:21:34.703Z,100838
2014-07-25T03:21:52.892Z,100848
2014-07-25T03:22:11.080Z,100843
2014-07-25T03:22:29.267Z,100845
2014-07-25T03:22:47.457Z,100845
2014-07-25T03:23:05.644Z,100854
2014-07-25T03:23:23.832Z,100854
2014-07-25T03:23:42.019Z,100848
2014-07-25T03:24:00.209Z,100851
2014-07-25T03:24:18.396Z,100848
2014-07-25T03:24:36.584Z,100843
2014-07-25T03:24:54.773Z,100854
2014-07-25T03:25:12.961Z,100835
2014-07-25T03:25:31.148Z,100851
2014-07-25T03:25:49.338Z,100848
2014-07-25T03:26:07.525Z,100854
2014-07-25T03:26:25.713Z,100835
2014-07-25T03:26:43.900Z,100848
2014-07-25T03:27:02.090Z,100848
2014-07-25T03:27:20.277Z,100845
2014-07-25T03:27:38.465Z,100845
2014-07-25T03:27:56.654Z,100848
2014-07-25T03:28:14.842Z,100843
2014-07-25T03:28:33.029Z,100843
2014-07-25T03:28:51.218Z,100845
2014-07-25T03:29:09.405Z,100851
2014-07-25T03:29:27.593Z,100845
2014-07-25T03:29:45.780Z,100838
2014-07-25T03:30:03.970Z,100845
2014-07-25T03:30:22.157Z,100838
2014-07-25T03:30:40.345Z,100832
2014-07-25T03:30:58.535Z,100848
2014-07-25T03:31:16.723Z,100845
2014-07-25T03:31:34.910Z,100838
2014-07-25T03:31:53.099Z,100838
2014-07-25T03:32:11.286Z,100835
2014-07-25T03:32:29.474Z,100843
2014-07-25T03:32:47.661Z,100843
2014-07-25T03:33:05.851Z,100845
2014-07-25T03:33:24.038Z,100843
2014-07-25T03:33:42.226Z,100843
2014-07-25T03:34:00.415Z,100851
2014-07-25T03:34:18.603Z,100835
2014-07-25T03:34:36.790Z,100845
2014-07-25T03:34:54.980Z,100848
2014-07-25T03:35:13.167Z,100845
2014-07-25T03:35:31.355Z,100854
2014-07-25T03:35:49.542Z,100845
2014-07-25T03:36:07.732Z,100848
2014-07-25T03:36:25.919Z,100845
2014-07-25T03:36:44.107Z,100843
2014-07-25T03:37:02.296Z,100848
2014-07-25T03:37:20.484Z,100851
2014-07-25T03:37:38.671Z,100848
2014-07-25T03:37:56.861Z,100832
2014-07-25T03:38:15.048Z,100843
2014-07-25T03:38:33.236Z,100843
2014-07-25T03:38:51.423Z,100845
2014-07-25T03:39:09.613Z,100843
2014-07-25T03:39:27.800Z,100845
2014-07-25T03:39:45.988Z,100851
2014-07-25T03:40:04.177Z,100845
2014-07-25T03:40:22.365Z,100845
2014-07-25T03:40:40.552Z,100845
2014-07-25T03:40:58.742Z,100838
2014-07-25T03:41:16.929Z,100832
2014-07-25T03:41:35.117Z,100844
2014-07-25T03:41:53.304Z,100829
2014-07-25T03:42:11.494Z,100829
2014-07-25T03:42:29.681Z,100835
2014-07-25T03:42:47.869Z,100845
2014-07-25T03:43:06.057Z,100835
2014-07-25T03:43:24.245Z,100845
2014-07-25T03:43:42.432Z,100845
2014-07-25T03:44:00.623Z,100838
2014-07-25T03:44:18.810Z,100835
2014-07-25T03:44:36.998Z,100845
2014-07-25T03:44:55.185Z,100845
2014-07-25T03:45:13.375Z,100844
2014-07-25T03:45:31.562Z,100844
2014-07-25T03:45:49.750Z,100838
2014-07-25T03:46:07.938Z,100844
2014-07-25T03:46:26.126Z,100844
2014-07-25T03:46:44.313Z,100844
2014-07-25T03:47:02.503Z,100835